Millington Regional Jetport Airport Millington US
ICAO: KNQA
IATA: NQA
Category: Medium
Scheduled Services: No

Elevation: 320 ft
TransAlt. 18000 ft.

Airport Communications:
MEMPHIS APP:119.1
AWOS 3:118.925
CTAF:120.25
MEMPHIS DEP:124.15
GND:121.375
TWR:120.25
UNICOM:122.95

KNQA Zoom In..

Runways:

(A) RW 04 length 8000 ft width 200 ft
---- / hdg 39

(B) RW 22 length 8000 ft width 200 ft
ILS 109.75 / hdg 219

Location; KNQA
Day. 04 / Time. 01.50 Zulu
* Altimeter: 29.93
* Temperature: 22° c. 71.6°f.
* Wind from: 100° Speed 03 kn.
Dewpoint: 21° c.
Visibility: 10 Statute Miles.
Clouds: Scattered 3800 ft.
Clouds: Broken 9500 ft.
Clouds: Overcast 12000 ft.

KNQA 040150Z 10003KT 10SM SCT038 BKN095 OVC120 22/21 A2993

Going to: --> -->


Wind From 100°
Speed 03 kn.

 
 
jpsmedia worldairports.se 2020   terms of use